Beale Air Force Base Marysville US
ICAO: KBAB
IATA: BAB
Category: Large
Scheduled Services: No

Elevation: 113 ft
TransAlt. 18000 ft.

Airport Communications:
940TH COMD POST:25.602
NORCAL APP:125.4
ATIS:27.35
NORCAL DEP:125.4
GND:121.6
SUPERVISOR OF FLYING:138.5
PMSV METRO:23.98
WING COMD POST:32.1
PTD:140.875
TWR:119.4

KBAB Zoom In..

Runways:

(A) RW 15 length 12000 ft width 300 ft
ILS 109.50 / hdg 145

(B) RW 33 length 12000 ft width 300 ft
ILS 109.50 / hdg 325

Location; KBAB
Day. 30 / Time. 21.58 Zulu
* Altimeter: 30.21
* Temperature: 16° c. 60.8°f.
* Wind from: 320° Speed 06 kn.
Dewpoint: 03° c.
Visibility: 10 Statute Miles.
Clouds: Clear (automated report).

KBAB 302158Z AUTO 32006KT 10SM CLR 16/03 A3021 RMK AO2 SLP233 T01620026 $

Going to: --> -->


Wind From 320°
Speed 06 kn.

 
 
jpsmedia worldairports.se 2020   terms of use